Time;durP1;ratioP1;P1;durP2;ratioP2;P2;SDS_P1;SDS_P2;PMS_P1;PMS_P2;Temp;Humidity;BMP_temperature;BMP_pressure;BME280_temperature;BME280_humidity;BME280_pressure;Samples;Min_cycle;Max_cycle;Signal;HPM_P1;HPM_P2
2024/01/24 00:02:24;;;;;;;3.80;0.95;;;;;;;1.59;98.44;99485.56;10381328;28;20038;-71
2024/01/24 00:07:28;;;;;;;3.25;1.33;;;;;;;1.60;98.49;99485.31;10380081;28;20034;-71
2024/01/24 00:12:30;;;;;;;2.15;0.82;;;;;;;1.64;98.38;99488.31;10407822;28;20039;-71
2024/01/24 00:17:32;;;;;;;1.90;1.20;;;;;;;1.60;98.15;99490.72;10380356;28;20045;-71
2024/01/24 00:22:34;;;;;;;3.30;1.55;;;;;;;1.60;98.01;99489.91;10379311;28;20034;-71
2024/01/24 00:27:37;;;;;;;0.60;0.60;;;;;;;1.59;98.59;99489.09;10401782;28;20042;-71
2024/01/24 00:32:39;;;;;;;1.52;0.90;;;;;;;1.56;99.33;99489.56;10380119;28;20038;-71
2024/01/24 00:37:41;;;;;;;2.63;1.00;;;;;;;1.53;99.97;99484.66;10360000;28;20512;-74
2024/01/24 00:42:44;;;;;;;1.27;0.80;;;;;;;1.44;100.00;99481.59;10376815;28;20046;-73
2024/01/24 00:47:46;;;;;;;2.05;1.00;;;;;;;1.42;100.00;99475.63;10371880;28;20116;-72
2024/01/24 00:52:52;;;;;;;1.08;0.80;;;;;;;1.40;100.00;99464.25;10379602;28;20060;-72
2024/01/24 00:57:54;;;;;;;2.50;0.98;;;;;;;1.40;100.00;99464.25;10376349;28;20049;-72
2024/01/24 01:02:57;;;;;;;1.20;0.82;;;;;;;1.44;100.00;99462.66;10391636;28;20034;-73
2024/01/24 01:08:00;;;;;;;1.85;1.00;;;;;;;1.41;100.00;99473.97;10369792;28;20045;-73
2024/01/24 01:13:03;;;;;;;1.25;0.98;;;;;;;1.38;100.00;99466.34;10403529;28;20045;-73
2024/01/24 01:18:05;;;;;;;1.25;0.80;;;;;;;1.36;100.00;99467.66;10393691;28;20129;-73
2024/01/24 01:23:09;;;;;;;2.35;1.00;;;;;;;1.35;100.00;99452.53;10366969;28;20038;-73
2024/01/24 01:28:11;;;;;;;1.13;0.73;;;;;;;1.20;100.00;99453.13;10399192;28;20033;-72
2024/01/24 01:33:13;;;;;;;1.80;1.00;;;;;;;1.09;100.00;99445.97;10396749;28;20405;-73
2024/01/24 01:38:16;;;;;;;1.60;1.00;;;;;;;0.97;100.00;99434.44;10403392;28;20045;-72
2024/01/24 01:43:18;;;;;;;1.65;0.82;;;;;;;0.95;100.00;99431.16;10385980;28;20052;-72
2024/01/24 01:48:21;;;;;;;1.10;0.70;;;;;;;0.99;100.00;99443.91;10413264;28;20048;-73
2024/01/24 01:53:24;;;;;;;1.88;0.80;;;;;;;1.04;100.00;99453.97;10380721;28;20053;-72
2024/01/24 01:58:26;;;;;;;1.23;0.90;;;;;;;1.06;100.00;99435.66;10407855;28;20061;-73
2024/01/24 02:03:29;;;;;;;0.95;0.80;;;;;;;1.07;100.00;99437.28;10367756;28;20042;-72
2024/01/24 02:08:35;;;;;;;1.52;0.90;;;;;;;1.09;100.00;99429.75;10404391;28;20454;-73
2024/01/24 02:13:37;;;;;;;1.10;0.80;;;;;;;1.09;100.00;99435.97;10398920;28;20421;-73
2024/01/24 02:18:43;;;;;;;0.73;0.63;;;;;;;1.11;100.00;99435.72;10382842;28;20418;-73
2024/01/24 02:23:47;;;;;;;1.48;0.70;;;;;;;1.11;100.00;99422.22;10382234;28;20029;-73
2024/01/24 02:28:49;;;;;;;1.50;0.90;;;;;;;1.07;100.00;99410.28;10390580;28;20036;-73
2024/01/24 02:33:51;;;;;;;2.03;0.98;;;;;;;1.07;100.00;99412.97;10397181;28;20045;-73
2024/01/24 02:38:54;;;;;;;1.15;0.80;;;;;;;1.07;100.00;99410.28;10372872;28;20042;-73
2024/01/24 02:43:56;;;;;;;1.08;0.93;;;;;;;1.05;100.00;99402.44;10394373;28;20041;-73
2024/01/24 02:48:58;;;;;;;0.60;0.60;;;;;;;1.05;100.00;99397.03;10382135;28;20064;-73
2024/01/24 02:54:01;;;;;;;1.60;1.02;;;;;;;1.03;100.00;99404.53;10374572;28;20046;-74
2024/01/24 02:59:03;;;;;;;1.30;0.77;;;;;;;1.07;100.00;99404.88;10397384;28;20034;-73
2024/01/24 03:04:07;;;;;;;2.15;0.77;;;;;;;1.04;100.00;99394.53;10398908;28;20038;-73
2024/01/24 03:09:10;;;;;;;1.48;0.90;;;;;;;1.07;100.00;99399.47;10397354;28;20037;-72
2024/01/24 03:14:13;;;;;;;2.28;1.20;;;;;;;1.11;100.00;99401.41;10382377;28;20513;-72
2024/01/24 03:19:15;;;;;;;1.63;0.80;;;;;;;1.12;100.00;99402.22;10383367;28;20039;-73
2024/01/24 03:24:17;;;;;;;1.05;0.82;;;;;;;1.16;100.00;99387.97;10383254;28;20037;-73
2024/01/24 03:29:20;;;;;;;1.38;0.88;;;;;;;1.13;100.00;99382.25;10398913;28;20037;-72
2024/01/24 03:34:23;;;;;;;1.63;1.10;;;;;;;1.14;100.00;99378.47;10386423;28;20046;-73
2024/01/24 03:39:27;;;;;;;1.23;0.80;;;;;;;1.18;100.00;99376.91;10361245;28;20049;-73
2024/01/24 03:44:30;;;;;;;0.80;0.60;;;;;;;1.12;100.00;99369.81;10411082;28;20052;-72
2024/01/24 03:49:33;;;;;;;1.48;0.80;;;;;;;1.11;100.00;99376.28;10380294;28;20513;-73
2024/01/24 03:54:36;;;;;;;3.58;0.80;;;;;;;1.12;100.00;99372.53;10378523;28;20072;-73
2024/01/24 03:59:39;;;;;;;0.88;0.77;;;;;;;1.09;100.00;99359.50;10390367;28;20505;-73
2024/01/24 04:04:42;;;;;;;1.23;0.40;;;;;;;1.08;100.00;99368.69;10384842;28;20034;-74
2024/01/24 04:09:45;;;;;;;3.05;0.73;;;;;;;1.09;100.00;99365.75;10407601;28;20099;-75
2024/01/24 04:14:47;;;;;;;1.08;0.80;;;;;;;1.07;100.00;99354.38;10379588;28;20045;-77
2024/01/24 04:19:50;;;;;;;2.40;1.17;;;;;;;1.07;100.00;99340.03;10379838;28;20038;-75
2024/01/24 04:24:52;;;;;;;0.60;0.60;;;;;;;1.02;100.00;99348.88;10417777;28;20041;-74
2024/01/24 04:29:55;;;;;;;0.77;0.77;;;;;;;1.03;100.00;99337.00;10404648;28;20049;-74
2024/01/24 04:34:57;;;;;;;1.08;0.75;;;;;;;1.04;100.00;99345.91;10386874;28;20030;-73
2024/01/24 04:40:00;;;;;;;0.60;0.60;;;;;;;1.02;100.00;99338.06;10385821;28;20057;-74
2024/01/24 04:45:02;;;;;;;1.13;0.90;;;;;;;1.01;100.00;99332.94;10405011;28;20042;-75
2024/01/24 04:50:05;;;;;;;1.25;0.70;;;;;;;1.00;100.00;99326.72;10383323;28;20798;-74
2024/01/24 04:55:11;;;;;;;1.27;1.00;;;;;;;1.00;100.00;99324.00;10404375;28;20049;-74
2024/01/24 05:00:14;;;;;;;0.82;0.82;;;;;;;1.02;100.00;99316.47;10386160;28;20041;-74
2024/01/24 05:05:17;;;;;;;0.93;0.70;;;;;;;1.03;100.00;99323.50;10403216;28;20100;-74
2024/01/24 05:10:20;;;;;;;1.10;0.80;;;;;;;1.01;100.00;99330.22;10404746;28;20040;-75
2024/01/24 05:15:22;;;;;;;0.82;0.82;;;;;;;1.01;100.00;99308.63;10387270;28;20045;-74
2024/01/24 05:20:25;;;;;;;1.67;0.80;;;;;;;1.02;100.00;99304.84;10405677;28;20053;-74
2024/01/24 05:25:27;;;;;;;0.70;0.57;;;;;;;0.98;100.00;99309.13;10386325;28;20042;-73
2024/01/24 05:30:30;;;;;;;0.43;0.43;;;;;;;1.00;100.00;99312.38;10385949;28;20038;-73
2024/01/24 05:35:32;;;;;;;0.63;0.63;;;;;;;0.97;100.00;99302.91;10385813;28;20049;-73
2024/01/24 05:40:35;;;;;;;0.52;0.52;;;;;;;1.01;100.00;99301.31;10404406;28;20044;-73
2024/01/24 05:45:37;;;;;;;3.22;0.70;;;;;;;0.96;100.00;99289.66;10403527;28;20045;-74
2024/01/24 05:50:40;;;;;;;0.30;0.30;;;;;;;0.94;100.00;99281.00;10403226;28;20057;-74
2024/01/24 05:55:43;;;;;;;1.13;0.55;;;;;;;0.92;100.00;99275.03;10403248;28;20469;-73
2024/01/24 06:00:46;;;;;;;1.95;0.50;;;;;;;0.92;100.00;99256.13;10364702;28;20068;-74
2024/01/24 06:05:49;;;;;;;0.68;0.57;;;;;;;0.85;100.00;99262.50;10367114;28;20656;-74
2024/01/24 06:10:52;;;;;;;0.65;0.35;;;;;;;0.78;100.00;99256.50;10402511;28;20048;-74
2024/01/24 06:15:54;;;;;;;0.80;0.80;;;;;;;0.72;100.00;99249.41;10344856;28;20037;-73
2024/01/24 06:20:56;;;;;;;0.70;0.70;;;;;;;0.75;100.00;99248.09;10391789;28;20103;-74
2024/01/24 06:25:59;;;;;;;1.45;0.90;;;;;;;0.74;100.00;99251.84;10403279;28;20042;-73
2024/01/24 06:31:02;;;;;;;1.08;0.95;;;;;;;0.74;100.00;99239.19;10401980;28;20060;-73
2024/01/24 06:36:04;;;;;;;0.75;0.75;;;;;;;0.77;100.00;99245.94;10401221;28;20421;-74
2024/01/24 06:41:09;;;;;;;1.05;0.85;;;;;;;0.80;100.00;99248.13;10367208;28;20042;-74
2024/01/24 06:46:12;;;;;;;0.85;0.82;;;;;;;0.83;100.00;99242.22;10381803;28;20069;-73
2024/01/24 06:51:15;;;;;;;1.63;0.63;;;;;;;0.82;100.00;99248.69;10401663;28;20045;-73
2024/01/24 06:56:17;;;;;;;1.05;0.77;;;;;;;0.84;100.00;99250.06;10384628;28;20517;-72
2024/01/24 07:01:20;;;;;;;2.25;1.05;;;;;;;0.85;100.00;99245.50;10386907;28;20044;-72
2024/01/24 07:06:22;;;;;;;0.52;0.52;;;;;;;0.84;100.00;99255.47;10374541;28;20045;-73
2024/01/24 07:11:24;;;;;;;1.58;0.90;;;;;;;0.80;100.00;99251.66;10384716;28;20424;-75
2024/01/24 07:16:27;;;;;;;1.77;0.93;;;;;;;0.80;100.00;99248.13;10381812;28;20034;-73
2024/01/24 07:21:30;;;;;;;1.58;0.60;;;;;;;0.81;100.00;99231.69;10386063;28;20049;-74
2024/01/24 07:26:34;;;;;;;2.17;0.90;;;;;;;0.82;100.00;99246.81;10381335;28;20048;-74
2024/01/24 07:31:37;;;;;;;0.70;0.70;;;;;;;0.84;100.00;99239.28;10398120;28;20041;-73
2024/01/24 07:36:40;;;;;;;2.90;1.10;;;;;;;0.85;100.00;99238.22;10395932;28;20506;-74
2024/01/24 07:41:43;;;;;;;1.63;1.10;;;;;;;0.87;100.00;99232.59;10378178;28;20072;-72
2024/01/24 07:46:45;;;;;;;0.80;0.80;;;;;;;0.93;100.00;99230.75;10398408;28;20064;-69
2024/01/24 07:51:48;;;;;;;0.85;0.77;;;;;;;0.87;100.00;99228.00;10394672;28;20049;-73
2024/01/24 07:56:53;;;;;;;1.88;1.17;;;;;;;0.88;100.00;99223.41;10331706;28;20030;-74
2024/01/24 08:01:56;;;;;;;1.23;1.08;;;;;;;0.90;100.00;99234.78;10366691;28;20045;-72
2024/01/24 08:06:58;;;;;;;1.30;1.20;;;;;;;0.86;100.00;99233.63;10398032;28;20455;-73
2024/01/24 08:12:01;;;;;;;1.25;0.82;;;;;;;0.88;100.00;99235.03;10380374;28;20064;-71
2024/01/24 08:17:06;;;;;;;0.63;0.63;;;;;;;0.82;100.00;99219.00;10379522;28;20049;-78
2024/01/24 08:22:08;;;;;;;0.80;0.80;;;;;;;0.89;100.00;99215.06;10348320;28;20049;-74
2024/01/24 08:27:11;;;;;;;1.65;1.00;;;;;;;0.91;100.00;99214.81;10393885;28;20045;-73
2024/01/24 08:32:14;;;;;;;1.58;1.20;;;;;;;0.94;100.00;99210.78;10375352;28;20056;-73
2024/01/24 08:37:17;;;;;;;1.10;0.80;;;;;;;0.94;100.00;99218.88;10380400;28;20054;-74
2024/01/24 08:42:20;;;;;;;1.92;0.80;;;;;;;0.96;100.00;99219.44;10379224;28;20041;-72
2024/01/24 08:47:23;;;;;;;0.98;0.77;;;;;;;0.95;100.00;99212.41;10398962;28;20046;-73
2024/01/24 08:52:26;;;;;;;1.02;0.90;;;;;;;0.97;100.00;99210.25;10374245;28;20057;-72
2024/01/24 08:57:28;;;;;;;1.00;0.80;;;;;;;1.05;100.00;99197.13;10367164;28;20522;-75
2024/01/24 09:02:31;;;;;;;1.30;0.80;;;;;;;1.01;100.00;99201.38;10363279;28;20552;-73
2024/01/24 09:07:34;;;;;;;1.55;1.02;;;;;;;1.06;100.00;99179.03;10375453;28;20040;-73
2024/01/24 09:12:37;;;;;;;1.00;0.90;;;;;;;1.08;100.00;99182.31;10398739;28;20037;-74
2024/01/24 09:17:40;;;;;;;2.03;0.93;;;;;;;1.07;100.00;99172.56;10386618;28;20030;-73
2024/01/24 09:22:44;;;;;;;1.33;0.90;;;;;;;1.01;100.00;99179.78;10388337;28;20448;-73
2024/01/24 09:27:46;;;;;;;1.30;1.00;;;;;;;1.01;100.00;99173.56;10385749;28;20042;-73
2024/01/24 09:32:48;;;;;;;2.00;1.08;;;;;;;0.99;100.00;99181.13;10387263;28;20050;-72
2024/01/24 09:37:51;;;;;;;1.85;1.02;;;;;;;1.00;100.00;99177.34;10355259;28;20060;-74
2024/01/24 09:42:53;;;;;;;1.88;1.15;;;;;;;1.06;100.00;99160.13;10330622;28;20049;-73
2024/01/24 09:47:58;;;;;;;0.77;0.77;;;;;;;1.07;100.00;99157.19;10330675;28;20049;-73
2024/01/24 09:53:05;;;;;;;2.30;1.20;;;;;;;1.01;100.00;99168.16;10386275;28;20061;-73
2024/01/24 09:58:08;;;;;;;1.70;1.13;;;;;;;1.07;100.00;99153.66;10371163;28;20041;-74
2024/01/24 10:03:11;;;;;;;1.30;1.02;;;;;;;1.06;100.00;99160.13;10385494;28;20468;-73
2024/01/24 10:08:15;;;;;;;2.58;1.30;;;;;;;1.05;100.00;99170.13;10386036;28;20545;-73
2024/01/24 10:13:17;;;;;;;1.75;1.02;;;;;;;1.04;100.00;99163.09;10385953;28;20156;-73
2024/01/24 10:18:20;;;;;;;1.20;0.95;;;;;;;1.01;100.00;99149.25;10385819;28;20042;-72
2024/01/24 10:23:22;;;;;;;1.30;1.08;;;;;;;1.00;100.00;99151.16;10403604;28;20041;-74
2024/01/24 10:28:25;;;;;;;0.95;0.95;;;;;;;0.94;100.00;99148.66;10385495;28;20045;-73
2024/01/24 10:33:29;;;;;;;1.10;1.00;;;;;;;0.93;100.00;99144.34;10370524;28;20080;-74
2024/01/24 10:38:32;;;;;;;1.00;0.90;;;;;;;0.87;100.00;99143.47;10385224;28;20045;-75
2024/01/24 10:43:35;;;;;;;1.33;0.65;;;;;;;0.83;100.00;99136.94;10394975;28;20045;-74
2024/01/24 10:48:39;;;;;;;1.73;1.00;;;;;;;0.79;100.00;99144.72;10412097;28;20519;-73
2024/01/24 10:53:41;;;;;;;2.35;0.75;;;;;;;0.77;100.00;99133.38;10425641;28;20056;-72
2024/01/24 10:58:48;;;;;;;4.22;1.08;;;;;;;0.75;100.00;99127.41;10409315;28;20045;-73
2024/01/24 11:03:51;;;;;;;1.17;0.65;;;;;;;0.78;100.00;99126.91;10416907;28;20040;-74
2024/01/24 11:09:35;;;;;;;1.35;1.10;;;;;;;0.83;100.00;99118.84;10381651;28;20045;-72
2024/01/24 11:14:44;;;;;;;1.42;1.33;;;;;;;0.83;100.00;99126.94;10318064;28;20052;-75
2024/01/24 11:19:47;;;;;;;2.42;0.95;;;;;;;0.86;100.00;99125.63;10382289;28;20046;-83
2024/01/24 11:24:50;;;;;;;1.70;1.33;;;;;;;0.88;100.00;99121.63;10383412;28;20058;-76
2024/01/24 11:29:52;;;;;;;1.25;1.15;;;;;;;0.86;100.00;99128.31;10365791;28;20046;-77
2024/01/24 11:35:33;;;;;;;2.75;1.10;;;;;;;0.88;100.00;99127.00;10386022;28;20037;-89
2024/01/24 11:40:38;;;;;;;0.95;0.90;;;;;;;0.86;100.00;99121.03;10382162;28;20420;-80
2024/01/24 11:45:42;;;;;;;0.82;0.82;;;;;;;0.94;100.00;99113.56;10407308;28;20038;-75
2024/01/24 11:50:47;;;;;;;3.45;0.80;;;;;;;0.87;100.00;99108.38;10423638;28;20037;-74
2024/01/24 11:55:55;;;;;;;0.93;0.93;;;;;;;0.88;100.00;99102.72;10367473;28;20062;-75
2024/01/24 12:01:07;;;;;;;1.20;0.90;;;;;;;0.78;100.00;99105.28;10339737;28;20042;-72
2024/01/24 12:06:10;;;;;;;0.70;0.70;;;;;;;0.68;100.00;99096.28;10324086;28;20049;-79
2024/01/24 12:11:12;;;;;;;0.70;0.70;;;;;;;0.68;100.00;99093.56;10357809;28;20050;-73
2024/01/24 12:16:15;;;;;;;1.20;1.10;;;;;;;0.60;100.00;99084.88;10357194;28;20043;-72
2024/01/24 12:21:18;;;;;;;1.60;1.20;;;;;;;0.65;100.00;99083.28;10358381;28;20050;-77
2024/01/24 12:26:21;;;;;;;1.92;1.17;;;;;;;0.65;100.00;99080.59;10353278;28;20050;-73
2024/01/24 12:31:30;;;;;;;0.77;0.70;;;;;;;0.67;100.00;99075.75;10341389;28;20057;-78
2024/01/24 12:36:33;;;;;;;1.45;1.00;;;;;;;0.66;100.00;99069.53;10357917;28;20050;-73
2024/01/24 12:41:39;;;;;;;3.17;0.90;;;;;;;0.63;100.00;99058.44;10339810;28;20434;-74
2024/01/24 12:46:41;;;;;;;1.95;1.50;;;;;;;0.70;100.00;99065.28;10363095;28;20041;-73
2024/01/24 12:51:43;;;;;;;1.20;0.95;;;;;;;0.70;100.00;99062.56;10365726;28;20640;-73
2024/01/24 12:56:47;;;;;;;1.70;1.08;;;;;;;0.76;100.00;99060.72;10389039;28;20034;-73
2024/01/24 13:01:51;;;;;;;1.20;0.95;;;;;;;0.73;100.00;99053.16;10389594;28;20045;-73
2024/01/24 13:06:56;;;;;;;1.13;0.80;;;;;;;0.72;100.00;99048.81;10405428;28;20591;-73
2024/01/24 13:11:58;;;;;;;1.63;1.00;;;;;;;0.72;100.00;99049.63;10372370;28;20413;-73
2024/01/24 13:17:03;;;;;;;0.95;0.95;;;;;;;0.72;100.00;99065.03;10387943;28;20041;-73
2024/01/24 13:22:06;;;;;;;1.20;1.08;;;;;;;0.69;100.00;99058.22;10372379;28;20045;-72
2024/01/24 13:27:08;;;;;;;1.90;0.73;;;;;;;0.71;100.00;99063.38;10371360;28;20044;-73
2024/01/24 13:32:11;;;;;;;3.17;0.90;;;;;;;0.74;100.00;99066.38;10387873;28;20041;-73
2024/01/24 13:37:16;;;;;;;0.95;0.63;;;;;;;0.75;100.00;99051.81;10381940;28;20033;-72
2024/01/24 13:42:18;;;;;;;2.75;1.00;;;;;;;0.74;100.00;99052.88;10412019;28;20521;-72
2024/01/24 13:47:21;;;;;;;1.95;0.98;;;;;;;0.68;100.00;99051.19;10383418;28;20049;-74
2024/01/24 13:52:23;;;;;;;0.50;0.50;;;;;;;0.71;100.00;99053.41;10410603;28;20066;-72
2024/01/24 13:57:26;;;;;;;1.05;0.65;;;;;;;0.73;100.00;99053.16;10425248;28;20418;-69
2024/01/24 14:02:28;;;;;;;1.48;0.77;;;;;;;0.70;100.00;99043.69;10386585;28;20429;-71
2024/01/24 14:07:30;;;;;;;0.68;0.68;;;;;;;0.69;100.00;99052.00;10389190;28;20034;-74
2024/01/24 14:12:33;;;;;;;1.33;0.65;;;;;;;0.71;100.00;99064.19;10373223;28;20132;-71
2024/01/24 14:17:35;;;;;;;0.63;0.63;;;;;;;0.73;100.00;99056.66;10366905;28;20536;-72
2024/01/24 14:22:38;;;;;;;0.70;0.60;;;;;;;0.71;100.00;99064.19;10377227;28;20041;-80
2024/01/24 14:27:43;;;;;;;2.33;0.63;;;;;;;0.76;100.00;99058.84;10379950;28;20041;-75
2024/01/24 14:32:46;;;;;;;1.35;1.20;;;;;;;0.72;99.62;99056.91;10371071;28;20048;-76
2024/01/24 14:37:48;;;;;;;0.98;0.70;;;;;;;0.67;100.00;99060.38;10373967;28;20057;-74
2024/01/24 14:42:51;;;;;;;1.02;0.80;;;;;;;0.66;100.00;99055.22;10372797;28;20041;-79
2024/01/24 14:47:53;;;;;;;0.82;0.70;;;;;;;0.67;100.00;99043.34;10390152;28;20536;-74
2024/01/24 14:52:56;;;;;;;1.20;0.70;;;;;;;0.65;99.36;99046.31;10396327;28;20053;-84
2024/01/24 14:58:00;;;;;;;1.05;0.63;;;;;;;0.66;98.99;99045.25;10332987;28;20038;-78
2024/01/24 15:03:04;;;;;;;2.10;1.00;;;;;;;0.69;99.01;99044.72;10334842;28;20042;-74
2024/01/24 15:08:10;;;;;;;1.48;1.10;;;;;;;0.71;98.88;99034.50;10404295;28;20042;-74
2024/01/24 15:13:12;;;;;;;2.42;1.00;;;;;;;0.71;99.11;99039.09;10392676;28;20033;-74
2024/01/24 15:18:19;;;;;;;3.15;1.08;;;;;;;0.70;99.21;99032.88;10369103;28;20092;-74
2024/01/24 15:23:21;;;;;;;3.85;1.52;;;;;;;0.70;99.29;99022.09;10383565;28;20579;-73
2024/01/24 15:28:27;;;;;;;0.80;0.80;;;;;;;0.68;99.14;99024.19;10364663;28;20048;-74
2024/01/24 15:33:31;;;;;;;2.03;0.85;;;;;;;0.70;99.49;99024.78;10380672;28;20057;-74
2024/01/24 15:38:33;;;;;;;1.17;0.90;;;;;;;0.71;99.67;99029.13;10389858;28;20156;-74
2024/01/24 15:43:37;;;;;;;3.67;1.27;;;;;;;0.74;99.85;99020.50;10378187;28;20038;-72
2024/01/24 15:48:40;;;;;;;3.33;1.38;;;;;;;0.70;99.94;99015.88;10354761;28;20559;-74
2024/01/24 15:53:43;;;;;;;4.18;1.77;;;;;;;0.69;100.00;99012.31;10364051;28;20812;-72
2024/01/24 15:58:46;;;;;;;4.50;1.30;;;;;;;0.70;100.00;98999.69;10366069;28;20042;-72
2024/01/24 16:03:48;;;;;;;3.58;1.33;;;;;;;0.65;100.00;99003.13;10399706;28;20038;-73
2024/01/24 16:08:50;;;;;;;5.93;2.03;;;;;;;0.69;100.00;99001.53;10399326;28;20038;-73
2024/01/24 16:13:52;;;;;;;3.85;1.63;;;;;;;0.67;100.00;98998.28;10379124;28;20030;-73
2024/01/24 16:18:55;;;;;;;3.80;1.20;;;;;;;0.75;100.00;98991.63;10402753;28;20075;-73
2024/01/24 16:23:57;;;;;;;4.65;2.65;;;;;;;0.71;100.00;98988.63;10405587;28;20040;-73
2024/01/24 16:29:00;;;;;;;1.77;1.27;;;;;;;0.75;100.00;98989.72;10359504;28;20052;-73
2024/01/24 16:34:02;;;;;;;3.28;1.88;;;;;;;0.79;100.00;98981.91;10390934;28;20040;-74
2024/01/24 16:39:05;;;;;;;3.65;1.35;;;;;;;0.81;100.00;98974.38;10354982;28;20469;-73
2024/01/24 16:44:07;;;;;;;4.55;1.80;;;;;;;0.83;100.00;98974.94;10409600;28;20053;-73
2024/01/24 16:49:09;;;;;;;9.02;2.47;;;;;;;0.78;100.00;98966.78;10377719;28;20042;-74
2024/01/24 16:54:12;;;;;;;6.28;2.85;;;;;;;0.80;100.00;98962.75;10385386;28;20069;-72
2024/01/24 16:59:14;;;;;;;6.50;2.47;;;;;;;0.80;100.00;98968.16;10381865;28;20038;-74
2024/01/24 17:04:17;;;;;;;7.78;2.58;;;;;;;0.79;100.00;98963.84;10371333;28;20398;-73
2024/01/24 17:09:19;;;;;;;3.78;2.38;;;;;;;0.85;100.00;98970.06;10367370;28;20391;-75
2024/01/24 17:14:21;;;;;;;9.35;3.03;;;;;;;0.99;100.00;98963.16;10397041;28;20026;-74
2024/01/24 17:19:24;;;;;;;2.95;1.38;;;;;;;0.89;100.00;98965.81;10380866;28;20045;-74
2024/01/24 17:24:26;;;;;;;6.50;1.52;;;;;;;0.91;100.00;98952.84;10386014;28;20041;-73
2024/01/24 17:29:29;;;;;;;2.60;1.75;;;;;;;0.83;100.00;98951.44;10417890;28;20041;-72
2024/01/24 17:34:31;;;;;;;5.22;2.03;;;;;;;0.78;100.00;98948.72;10372038;28;20425;-72
2024/01/24 17:39:33;;;;;;;5.40;1.90;;;;;;;0.76;100.00;98942.75;10405253;28;20049;-73
2024/01/24 17:44:35;;;;;;;5.18;2.60;;;;;;;0.78;100.00;98935.22;10388425;28;20521;-72
2024/01/24 17:49:38;;;;;;;5.25;2.22;;;;;;;0.74;100.00;98936.00;10370787;28;20049;-73
2024/01/24 17:54:40;;;;;;;4.45;2.03;;;;;;;0.71;100.00;98942.72;10386145;28;20045;-72
2024/01/24 17:59:42;;;;;;;2.72;2.05;;;;;;;0.71;100.00;98931.94;10386113;28;20049;-73
2024/01/24 18:04:44;;;;;;;3.78;2.28;;;;;;;0.86;100.00;98939.31;10404746;28;20042;-73
2024/01/24 18:09:47;;;;;;;4.20;2.50;;;;;;;0.85;100.00;98929.56;10406593;28;20553;-72
2024/01/24 18:14:50;;;;;;;7.15;2.42;;;;;;;0.82;100.00;98930.09;10407434;28;20049;-72
2024/01/24 18:19:52;;;;;;;3.17;2.03;;;;;;;0.83;100.00;98924.44;10386423;28;20041;-74
2024/01/24 18:24:54;;;;;;;3.28;2.33;;;;;;;0.88;100.00;98923.69;10373051;28;20042;-74
2024/01/24 18:29:57;;;;;;;3.33;2.30;;;;;;;0.89;100.00;98928.81;10402501;28;20049;-78
2024/01/24 18:35:00;;;;;;;7.45;3.50;;;;;;;0.80;100.00;98911.47;10347599;28;20045;-75
2024/01/24 18:40:06;;;;;;;6.68;3.28;;;;;;;0.75;100.00;98914.13;10383335;28;20042;-77
2024/01/24 18:45:11;;;;;;;5.20;2.85;;;;;;;0.76;100.00;98912.25;10404875;28;20041;-78
2024/01/24 18:50:13;;;;;;;5.35;3.35;;;;;;;0.74;100.00;98915.22;10385882;28;20512;-75
2024/01/24 18:55:16;;;;;;;6.00;3.22;;;;;;;0.79;100.00;98915.25;10383297;28;20061;-74
2024/01/24 19:00:20;;;;;;;7.70;2.88;;;;;;;0.76;100.00;98915.75;10384671;28;20559;-75
2024/01/24 19:05:23;;;;;;;5.88;2.75;;;;;;;0.81;100.00;98904.97;10368388;28;20391;-76
2024/01/24 19:10:25;;;;;;;6.53;2.35;;;;;;;0.91;100.00;98898.84;10366173;28;20052;-77
2024/01/24 19:15:27;;;;;;;8.40;2.92;;;;;;;0.90;100.00;98892.63;10384383;28;20481;-72
2024/01/24 19:20:30;;;;;;;6.43;2.70;;;;;;;0.93;100.00;98895.88;10367406;28;20046;-73
2024/01/24 19:25:33;;;;;;;7.22;2.80;;;;;;;0.91;100.00;98893.44;10368002;28;20038;-72
2024/01/24 19:30:35;;;;;;;6.28;2.25;;;;;;;0.93;100.00;98885.09;10418369;28;20539;-72
2024/01/24 19:35:39;;;;;;;8.20;2.70;;;;;;;0.96;100.00;98889.97;10440345;28;20052;-73
2024/01/24 19:40:42;;;;;;;4.43;2.30;;;;;;;0.92;100.00;98875.34;10385123;28;20046;-72
2024/01/24 19:45:44;;;;;;;8.02;2.33;;;;;;;0.89;100.00;98882.09;10371032;28;20072;-71
2024/01/24 19:50:46;;;;;;;8.80;2.60;;;;;;;0.85;100.00;98872.88;10365557;28;20063;-71
2024/01/24 19:55:50;;;;;;;9.45;3.28;;;;;;;0.90;100.00;98865.63;10380868;28;20057;-68
2024/01/24 20:00:52;;;;;;;12.90;3.53;;;;;;;0.82;100.00;98863.41;10398045;28;20054;-70
2024/01/24 20:05:55;;;;;;;11.35;3.70;;;;;;;0.76;100.00;98855.56;10376315;28;20564;-72
2024/01/24 20:10:57;;;;;;;11.10;3.63;;;;;;;0.69;100.00;98869.25;10361179;28;20038;-76
2024/01/24 20:16:00;;;;;;;7.95;3.30;;;;;;;0.57;100.00;98877.56;10378963;28;20049;-73
2024/01/24 20:21:02;;;;;;;9.07;3.63;;;;;;;0.48;100.00;98868.31;10379347;28;20046;-76
2024/01/24 20:26:09;;;;;;;6.72;3.20;;;;;;;0.43;100.00;98867.47;10380006;28;20045;-73
2024/01/24 20:31:11;;;;;;;9.23;2.60;;;;;;;0.33;100.00;98860.09;10396413;28;20561;-77
2024/01/24 20:36:14;;;;;;;9.60;2.75;;;;;;;0.30;100.00;98863.31;10397399;28;20045;-74
2024/01/24 20:41:16;;;;;;;7.55;2.92;;;;;;;0.15;100.00;98861.31;10379597;28;20037;-73
2024/01/24 20:46:19;;;;;;;7.25;3.08;;;;;;;0.06;100.00;98864.75;10397752;28;20453;-75
2024/01/24 20:51:21;;;;;;;6.25;2.30;;;;;;;-0.03;100.00;98861.69;10380748;28;20048;-71
2024/01/24 20:56:23;;;;;;;5.60;2.47;;;;;;;-0.02;100.00;98863.31;10399435;28;20820;-75
2024/01/24 21:01:26;;;;;;;6.57;3.55;;;;;;;-0.07;100.00;98866.78;10391908;28;20129;-73
2024/01/24 21:06:29;;;;;;;7.20;2.67;;;;;;;-0.08;100.00;98867.03;10380962;28;20053;-73
2024/01/24 21:11:31;;;;;;;6.50;2.72;;;;;;;-0.15;100.00;98869.13;10387708;28;20041;-74
2024/01/24 21:16:35;;;;;;;5.43;2.38;;;;;;;-0.17;100.00;98865.88;10374145;28;20428;-74
2024/01/24 21:21:37;;;;;;;4.65;1.95;;;;;;;-0.16;100.00;98870.19;10377399;28;20037;-73
2024/01/24 21:26:40;;;;;;;4.13;2.42;;;;;;;-0.18;100.00;98861.53;10370746;28;20217;-73
2024/01/24 21:31:46;;;;;;;3.97;1.85;;;;;;;-0.19;100.00;98858.03;10387695;28;20037;-73
2024/01/24 21:36:49;;;;;;;4.00;1.83;;;;;;;-0.16;100.00;98848.63;10369740;28;20052;-72
2024/01/24 21:41:52;;;;;;;6.18;2.17;;;;;;;-0.16;100.00;98845.94;10371665;28;20042;-70
2024/01/24 21:46:56;;;;;;;5.88;2.40;;;;;;;-0.19;100.00;98857.22;10332053;28;20042;-74
2024/01/24 21:51:59;;;;;;;5.82;2.90;;;;;;;-0.18;100.00;98858.84;10374232;28;20056;-72
2024/01/24 21:57:03;;;;;;;6.43;3.42;;;;;;;-0.20;100.00;98845.63;10390105;28;20049;-72
2024/01/24 22:02:06;;;;;;;4.15;2.80;;;;;;;-0.18;100.00;98838.09;10385880;28;20049;-68
2024/01/24 22:07:09;;;;;;;8.52;3.67;;;;;;;-0.19;100.00;98849.94;10402817;28;20524;-67
2024/01/24 22:12:12;;;;;;;8.13;3.70;;;;;;;-0.18;100.00;98845.34;10399011;28;20057;-68
2024/01/24 22:17:15;;;;;;;5.78;2.45;;;;;;;-0.18;100.00;98854.25;10402255;28;20045;-67
2024/01/24 22:22:17;;;;;;;5.20;2.78;;;;;;;-0.17;100.00;98847.81;10401379;28;20667;-67
2024/01/24 22:27:20;;;;;;;5.97;3.30;;;;;;;-0.13;100.00;98850.81;10380717;28;20033;-68
2024/01/24 22:32:23;;;;;;;6.40;3.38;;;;;;;-0.16;100.00;98845.94;10400335;28;20057;-68
2024/01/24 22:37:26;;;;;;;8.60;4.00;;;;;;;-0.18;100.00;98858.84;10381840;28;20409;-68
2024/01/24 22:42:29;;;;;;;6.70;3.90;;;;;;;-0.17;100.00;98849.72;10370006;28;20730;-68
2024/01/24 22:47:31;;;;;;;6.00;3.80;;;;;;;-0.20;100.00;98851.00;10382730;28;20040;-68
2024/01/24 22:52:33;;;;;;;4.53;3.20;;;;;;;-0.15;100.00;98848.38;10368076;28;20058;-68
2024/01/24 22:57:37;;;;;;;5.32;3.63;;;;;;;-0.18;100.00;98851.56;10380312;28;20034;-68
2024/01/24 23:02:39;;;;;;;4.03;3.10;;;;;;;-0.18;100.00;98850.75;10399755;28;20033;-67
2024/01/24 23:07:41;;;;;;;3.88;2.75;;;;;;;-0.17;100.00;98849.72;10382881;28;20517;-68
2024/01/24 23:12:44;;;;;;;5.88;3.50;;;;;;;-0.17;100.00;98857.81;10381485;28;20041;-67
2024/01/24 23:17:47;;;;;;;4.78;3.70;;;;;;;-0.19;100.00;98851.81;10401093;28;20041;-68
2024/01/24 23:22:51;;;;;;;4.70;3.28;;;;;;;-0.20;100.00;98853.69;10398362;28;20044;-67
2024/01/24 23:27:53;;;;;;;4.50;3.10;;;;;;;-0.21;100.00;98849.38;10363010;28;20034;-67